[ ตารางข้อมูล ] [ Min-Max ] [ วันนี้2 ] [ วันนี้4 ] [ เทียบ-A 3วัน ] [ เทียบ-B 4วัน ]   

วันนี้2   [ ◀ ช่วงเก่ากว่า ] [ ช่วงที่ 17 ] [ ช่วงใหม่กว่า ▶ ] [ ล่าสุด ]    [ 3 ชั่วโมง ] [ 6 ชั่วโมง ] [ 12 ชั่วโมง ] [ 24 ชั่วโมง ]   วันนี้2

อุณภูมิในตู้ Knockdown4529  ราย 6 ชั่วโมง  ที่วัดได้ ในช่วงวันเวลา 27/08/2026 (11:39) ถึง 27/08/2026 (17:39) 
ความชื้นในตู้ Knockdown4529  ราย 6 ชั่วโมง  ที่วัดได้ ในช่วงวันเวลา 27/08/2026 (11:39) ถึง 27/08/2026 (17:39) 
การใช้ไฟฟ้าในตู้ Knockdown4529  ราย 6 ชั่วโมง  ที่วัดได้ ในช่วงวันเวลา 27/08/2026 (11:39) ถึง 27/08/2026 (17:39) 

  DS18B20SHTC3PZEM-004TWiFi 
IDDate d/m/Y & Timedata1
สูง
data2
ต่ำ
data3
นอก
temp
pcb
hum
pcb
VoltAmpWattrssiTime
 16526  27/08/2026 17:36:23  33.9  33.4  33.4  34.8  62.1  231.2  0.04  4.5  -85  17:36 
 16525  27/08/2026 17:31:40  34.0  33.4  33.5  34.9  62.2  231.2  0.04  4.3  -88  17:31 
 16524  27/08/2026 17:26:57  34.0  33.4  33.7  34.8  62.3  231.1  0.04  4.5  -90  17:26 
 16523  27/08/2026 17:22:03  34.0  33.4  33.8  34.8  62.3  231.2  0.04  4.5  -89  17:22 
 16522  27/08/2026 17:17:17  34.0  33.4  33.7  35.0  62.3  231.0  0.04  4.6  -90  17:17 
 16521  27/08/2026 17:12:33  34.0  33.4  33.8  35.0  62.2  230.8  0.04  4.5  -85  17:12 
 16520  27/08/2026 17:07:49  34.0  33.5  33.9  34.8  62.0  230.8  0.04  4.5  -88  17:07 
 16519  27/08/2026 17:03:06  34.0  33.5  33.9  34.8  62.1  231.8  0.04  4.5  -87  17:03 
 16518  27/08/2026 16:58:19  33.9  33.5  34.0  34.8  62.2  231.4  0.04  4.5  -87  16:58 
 16517  27/08/2026 16:48:48  33.9  33.5  34.0  34.8  62.0  231.1  0.04  4.4  -86  16:48 
 16516  27/08/2026 16:44:05  34.2  33.5  34.0  35.2  62.1  231.5  0.04  5.2  -84  16:44 
 16515  27/08/2026 16:38:27  34.2  33.6  33.9  35.1  62.0  231.4  0.04  4.5  -84  16:38 
 16514  27/08/2026 16:33:39  34.2  33.6  33.9  35.1  61.9  230.1  0.03  4.5  -85  16:33 
 16513  27/08/2026 16:28:54  34.3  33.6  34.2  35.3  61.9  230.3  0.04  4.5  -89  16:28 
 16512  27/08/2026 16:24:11  34.4  33.6  34.3  35.2  61.8  231.4  0.04  4.5  -86  16:24 
 16511  27/08/2026 16:19:27  34.4  33.6  34.2  35.3  61.7  230.5  0.04  4.5  -87  16:19 
 16510  27/08/2026 16:14:42  34.5  33.6  34.4  35.4  61.7  229.9  0.04  4.5  -83  16:14 
 16509  27/08/2026 16:09:58  34.5  33.6  34.4  35.3  61.6  230.8  0.04  4.5  -85  16:09 
 16508  27/08/2026 16:05:14  34.6  33.6  34.3  35.5  61.8  231.6  0.04  4.5  -84  16:05 
 16507  27/08/2026 16:00:30  34.6  33.6  34.4  35.4  61.7  230.5  0.04  4.5  -84  16:00 
 16506  27/08/2026 15:55:44  34.6  33.6  34.6  35.4  61.8  230.6  0.04  4.5  -86  15:55 
 16505  27/08/2026 15:51:00  34.6  33.6  34.6  35.6  61.6  230.3  0.04  4.5  -85  15:51 
 16504  27/08/2026 15:46:15  34.7  33.6  34.7  35.5  61.8  231.6  0.04  4.5  -83  15:46 
 16503  27/08/2026 15:41:31  34.7  33.6  35.0  35.5  61.6  229.8  0.04  4.5  -84  15:41 

Data every 5 minute.


ใช้เวลาประมวลผล 0.06798 วินาที